• Join FlightAware (Why Join?)
  • Login
  • US Flag 
12:57AM EDT


 

Airport Tracker/Info


-or-


 

Live Flight TrackerFlight Track Log ✈ SWA9013 ✈ 08-Apr-2014 ✈ KDEN - KSNA

Flight Track Log - Related Links

Times and Time Zones

All times are in EDT time to prevent confusion due to time zone crossing. See the SWA9013 flight status page for this flight to view local times or setup timezone preferences in your user account.

Time Position Orientation Groundspeed Altitude Reporting Facility
EDT Latitude Longitude Course Direction KTS MPH feet Rate Location/Type
11:20PM 39.8333 -104.8000 245° Southwest 223 257 9,100  Level Denver TRACON
11:21PM 39.8000 -104.8833 243° Southwest 288 331 10,800 2,880 Climbing Denver TRACON
11:22PM 39.7667 -105.0167 252° West 356 410 15,000 3,780 Climbing Denver TRACON
11:23PM 39.7242 -105.1425 246° West 363 418 19,200 3,480 Climbing Denver Center
11:24PM 39.6872 -105.2489 246° West 357 411 22,400 3,120 Climbing Denver Center
11:25PM 39.6061 -105.4334 245° Southwest  Level FlightAware Approximate
11:25PM 39.6333 -105.3992 245° Southwest 384 442 25,600  Level Denver Center
11:26PM 39.5844 -105.5322 245° Southwest 404 465 27,700 2,040 Climbing Denver Center
11:27PM 39.5383 -105.6719 247° West 420 483 29,800 2,220 Climbing Denver Center
11:28PM 39.4964 -105.8197 250° West 435 501 32,300 2,400 Climbing Denver Center
11:29PM 39.4581 -105.9661 251° West 435 501 34,800 2,280 Climbing Denver Center
11:30PM 39.4175 -106.1089 250° West 427 491 37,000 2,100 Climbing Denver Center
11:31PM 39.3747 -106.2600 250° West 426 490 39,100 1,440 Climbing Denver Center
11:32PM 39.3372 -106.3911 250° West 413 475 40,000 420 Climbing Denver Center
11:33PM 39.3003 -106.5211 250° West 407 468 40,000  Level Denver Center
11:34PM 39.2550 -106.6733 249° West 406 467 40,000  Level Denver Center
11:35PM 39.1978 -106.7919 238° Southwest 407 468 40,000  Level Denver Center
11:36PM 39.1133 -106.9214 230° Southwest 416 479 40,000  Level Denver Center
11:37PM 39.0419 -107.0297 230° Southwest 416 479 40,000  Level Denver Center
11:38PM 38.9711 -107.1408 231° Southwest 416 479 40,000  Level Denver Center
11:39PM 38.8883 -107.2694 230° Southwest 416 479 40,000  Level Denver Center
11:40PM 38.8175 -107.3781 230° Southwest 417 480 40,000  Level Denver Center
11:41PM 38.7469 -107.4875 230° Southwest 417 480 40,000  Level Denver Center
11:42PM 38.6631 -107.6158 230° Southwest 417 480 40,000  Level Denver Center
11:43PM 38.5908 -107.7247 230° Southwest 418 481 40,000  Level Denver Center
11:44PM 38.4950 -107.8694 230° Southwest 417 480 40,000  Level Denver Center
11:45PM 38.4247 -107.9775 230° Southwest 417 480 40,000  Level Denver Center
11:46PM 38.3519 -108.0853 229° Southwest 417 480 40,000  Level Denver Center
11:47PM 38.2689 -108.2106 230° Southwest 416 479 40,000  Level Denver Center
11:48PM 38.1981 -108.3156 229° Southwest 413 475 40,000  Level Denver Center
11:49PM 38.1250 -108.4239 229° Southwest 414 476 40,000  Level Denver Center
11:50PM 38.0442 -108.5436 229° Southwest 414 476 40,000  Level Denver Center
11:51PM 37.9719 -108.6494 229° Southwest 414 476 40,000  Level Denver Center
11:52PM 37.8881 -108.7733 229° Southwest 414 476 40,000  Level Denver Center
11:53PM 37.8144 -108.8792 229° Southwest 414 476 40,000  Level Denver Center
11:54PM 37.7419 -108.9861 229° Southwest 416 479 40,000  Level Denver Center
11:55PM 37.6575 -109.1111 230° Southwest 419 482 40,000  Level Denver Center
11:56PM 37.5919 -109.2250 234° Southwest 420 483 40,000  Level Denver Center
11:58PM 37.5253 -109.3617 238° Southwest 415 478 40,000  Level Denver Center
11:59PM 37.4664 -109.4783 238° Southwest 414 476 40,000  Level Denver Center
12:00AM 37.4078 -109.5931 237° Southwest 413 475 40,000  Level Denver Center
12:01AM 37.3397 -109.7292 238° Southwest 412 474 40,000  Level Denver Center
12:02AM 37.2806 -109.8450 237° Southwest 412 474 40,000  Level Denver Center
12:03AM 37.2131 -109.9783 238° Southwest 410 472 40,000  Level Denver Center
12:04AM 37.1539 -110.0947 237° Southwest 411 473 40,000  Level Denver Center
12:05AM 37.0975 -110.2047 237° Southwest 411 473 40,000  Level Denver Center
12:06AM 37.0358 -110.3244 237° Southwest 410 472 40,000  Level Denver Center
12:07AM 36.9747 -110.4433 237° Southwest 409 471 40,000  Level Denver Center
12:08AM 36.9008 -110.5878 237° Southwest 409 471 40,000  Level Denver Center
12:09AM 36.8383 -110.7078 237° Southwest 411 473 40,000  Level Denver Center
12:10AM 36.7747 -110.8275 236° Southwest 412 474 40,000  Level Denver Center
12:11AM 36.7136 -110.9478 238° Southwest 412 474 40,000  Level Denver Center
12:12AM 36.6511 -111.0669 237° Southwest 412 474 40,000  Level Denver Center
12:13AM 36.5872 -111.1861 236° Southwest 412 474 40,000  Level Denver Center
12:14AM 36.5242 -111.3056 237° Southwest 412 474 40,000  Level Denver Center
12:15AM 36.4622 -111.4225 237° Southwest 411 473 40,000  Level Denver Center
12:16AM 36.3992 -111.5397 236° Southwest 410 472 40,000  Level Denver Center
12:17AM 36.3367 -111.6575 237° Southwest 410 472 40,000  Level Denver Center
12:17AM 36.2975 -111.7289 236° Southwest 408 470 40,000  Level Los Angeles Center
12:18AM 36.2339 -111.8467 236° Southwest 410 472 40,000  Level Los Angeles Center
12:19AM 36.1631 -111.9806 237° Southwest 410 472 40,000  Level Los Angeles Center
12:21AM 36.1000 -112.0958 236° Southwest 410 472 40,000  Level Los Angeles Center
12:22AM 36.0381 -112.2117 237° Southwest 410 472 40,000  Level Los Angeles Center
12:23AM 35.9692 -112.3364 236° Southwest 409 471 40,000  Level Los Angeles Center
12:24AM 35.9128 -112.4411 236° Southwest 406 467 40,000  Level Los Angeles Center
12:25AM 35.8489 -112.5558 236° Southwest 406 467 40,000  Level Los Angeles Center
12:26AM 35.7864 -112.6697 236° Southwest 406 467 40,000  Level Los Angeles Center
12:27AM 35.7111 -112.8078 236° Southwest 406 467 40,000  Level Los Angeles Center
12:28AM 35.6506 -112.9153 235° Southwest 409 471 40,000  Level Los Angeles Center
12:29AM 35.5850 -113.0344 236° Southwest 409 471 40,000  Level Los Angeles Center
12:30AM 35.5194 -113.1506 235° Southwest 410 472 40,000  Level Los Angeles Center
12:31AM 35.4558 -113.2658 236° Southwest 410 472 40,000  Level Los Angeles Center
12:32AM 35.3792 -113.4003 235° Southwest 411 473 40,000  Level Los Angeles Center
12:33AM 35.3144 -113.5144 235° Southwest 411 473 40,000  Level Los Angeles Center
12:34AM 35.2508 -113.6294 236° Southwest 412 474 40,000  Level Los Angeles Center
12:35AM 35.1869 -113.7422 235° Southwest 410 472 40,000  Level Los Angeles Center
12:36AM 35.1214 -113.8553 235° Southwest 410 472 40,000  Level Los Angeles Center
12:37AM 35.0519 -113.9783 235° Southwest 410 472 40,000  Level Los Angeles Center
12:38AM 34.9867 -114.0917 235° Southwest 409 471 40,000  Level Los Angeles Center
12:39AM 34.9214 -114.2047 235° Southwest 409 471 40,000  Level Los Angeles Center
12:40AM 34.8564 -114.3194 235° Southwest 409 471 40,000  Level Los Angeles Center
12:41AM 34.7908 -114.4325 235° Southwest 409 471 40,000  Level Los Angeles Center
12:42AM 34.7461 -114.5575 247° West 404 465 40,000  Level Los Angeles Center
12:43AM 34.7014 -114.6828 247° West 404 465 40,000  Level Los Angeles Center
12:44AM 34.6511 -114.8211 246° West 404 465 40,000  Level Los Angeles Center
12:45AM 34.6058 -114.9439 246° West 404 465 40,000  Level Los Angeles Center
12:46AM 34.5606 -115.0681 246° West 403 464 40,000  Level Los Angeles Center
12:47AM 34.5158 -115.1911 246° West 403 464 40,000  Level Los Angeles Center
12:48AM 34.4714 -115.3125 246° West 401 461 40,000  Level Los Angeles Center
12:49AM 34.4256 -115.4344 246° West 399 459 40,000 -780 Level Los Angeles Center
12:50AM 34.3719 -115.5806 246° West 399 459 38,500 -1,740 Descending Los Angeles Center
12:51AM 34.3267 -115.6978 245° Southwest 392 451 36,500 -2,100 Descending Los Angeles Center
12:52AM 34.2811 -115.8214 246° West 398 458 34,300 -1,440 Descending Los Angeles Center
12:53AM 34.2394 -115.9342 246° West 412 474 33,600 -960 Descending Los Angeles Center
12:54AM 34.1819 -116.0853 245° Southwest 415 478 32,400 -2,220 Descending Los Angeles Center
12:55AM 34.1339 -116.2128 246° West 415 478 29,100 -2,880 Descending Los Angeles Center
12:56AM 34.0906 -116.3247 245° Southwest 412 474 26,500 -2,700 Descending Los Angeles Center
12:57AM 34.0444 -116.4478 246° West 406 467 23,600 -3,120 Descending Los Angeles Center
12:58AM 33.9894 -116.5900 245° Southwest 398 458 20,200 -2,940 Descending Los Angeles Center
12:59AM 33.9458 -116.7022 245° Southwest 379 436 17,600 -2,700 Descending Los Angeles Center
01:00AM 33.9039 -116.8114 245° Southwest 365 420 14,700 -2,040 Descending Los Angeles Center
01:01AM 33.8833 -116.9000 254° West 341 392 14,000 -420 Descending Southern California TRACON
01:02AM 33.8667 -117.0167 260° West 342 394 14,000 -300 Level Southern California TRACON
01:03AM 33.8333 -117.1333 251° West 344 396 13,400 -1,440 Descending Southern California TRACON
01:04AM 33.8167 -117.2333 259° West 343 395 11,100 -1,560 Descending Southern California TRACON
01:06AM 33.8000 -117.4333 264° West 259 298 8,700 -1,080 Descending Southern California TRACON
01:07AM 33.7833 -117.5167 256° West 250 288 8,000 -900 Descending Southern California TRACON
01:08AM 33.7833 -117.6000 270° West 248 285 7,000 -720 Descending Southern California TRACON
01:09AM 33.8000 -117.6667 287° West 236 272 6,600 -600 Descending Southern California TRACON
01:10AM 33.8000 -117.7333 270° West 194 223 5,900 -1,080 Descending Southern California TRACON
01:11AM 33.8000 -117.7833 270° West 150 173 4,500 -1,740 Descending Southern California TRACON
01:12AM 33.7667 -117.8167 220° Southwest 149 171 2,500 -1,680 Descending Southern California TRACON
01:13AM 33.7333 -117.8333 203° Southwest 140 161 1,200 -960 Descending Southern California TRACON
01:14AM 33.7000 -117.8500 203° Southwest 131 151 600 -600 Descending Southern California TRACON
01:18AM 33.6757 -117.8682 132° Southeast  Level Estimated